sensor_id;sensor_type;location;lat;lon;timestamp;temperature;humidity
17887;DHT22;9069;52.044;7.472;2023-11-21T00:00:35;12.10;99.90
17887;DHT22;9069;52.044;7.472;2023-11-21T00:03:02;12.10;99.90
17887;DHT22;9069;52.044;7.472;2023-11-21T00:05:30;12.10;99.90
17887;DHT22;9069;52.044;7.472;2023-11-21T00:07:57;12.20;99.90
17887;DHT22;9069;52.044;7.472;2023-11-21T00:10:24;12.20;99.90
17887;DHT22;9069;52.044;7.472;2023-11-21T00:12:51;12.20;99.90
17887;DHT22;9069;52.044;7.472;2023-11-21T00:15:17;12.20;99.90
17887;DHT22;9069;52.044;7.472;2023-11-21T00:17:45;12.20;99.90
17887;DHT22;9069;52.044;7.472;2023-11-21T00:20:13;12.30;99.90
17887;DHT22;9069;52.044;7.472;2023-11-21T00:22:41;12.30;99.90
17887;DHT22;9069;52.044;7.472;2023-11-21T00:25:08;12.30;99.90
17887;DHT22;9069;52.044;7.472;2023-11-21T00:27:36;12.30;99.90
17887;DHT22;9069;52.044;7.472;2023-11-21T00:30:06;12.30;99.90
17887;DHT22;9069;52.044;7.472;2023-11-21T00:32:35;12.30;99.90
17887;DHT22;9069;52.044;7.472;2023-11-21T00:35:02;12.30;99.90
17887;DHT22;9069;52.044;7.472;2023-11-21T00:37:29;12.30;99.90
17887;DHT22;9069;52.044;7.472;2023-11-21T00:39:58;12.30;99.90
17887;DHT22;9069;52.044;7.472;2023-11-21T00:42:25;12.30;99.90
17887;DHT22;9069;52.044;7.472;2023-11-21T00:44:52;12.30;99.90
17887;DHT22;9069;52.044;7.472;2023-11-21T00:47:19;12.30;99.90
17887;DHT22;9069;52.044;7.472;2023-11-21T00:49:46;12.30;99.90
17887;DHT22;9069;52.044;7.472;2023-11-21T00:52:12;12.20;99.90
17887;DHT22;9069;52.044;7.472;2023-11-21T00:54:39;12.20;99.90
17887;DHT22;9069;52.044;7.472;2023-11-21T00:57:06;12.30;99.90
17887;DHT22;9069;52.044;7.472;2023-11-21T00:59:35;12.20;99.90
17887;DHT22;9069;52.044;7.472;2023-11-21T01:02:03;12.20;99.90
17887;DHT22;9069;52.044;7.472;2023-11-21T01:04:31;12.20;99.90
17887;DHT22;9069;52.044;7.472;2023-11-21T01:06:59;12.20;99.90
17887;DHT22;9069;52.044;7.472;2023-11-21T01:09:26;12.30;99.90
17887;DHT22;9069;52.044;7.472;2023-11-21T01:11:54;12.30;99.90
17887;DHT22;9069;52.044;7.472;2023-11-21T01:14:21;12.30;99.90
17887;DHT22;9069;52.044;7.472;2023-11-21T01:16:48;12.30;99.90
17887;DHT22;9069;52.044;7.472;2023-11-21T01:19:15;12.30;99.90
17887;DHT22;9069;52.044;7.472;2023-11-21T01:21:42;12.30;99.90
17887;DHT22;9069;52.044;7.472;2023-11-21T01:24:09;12.30;99.90
17887;DHT22;9069;52.044;7.472;2023-11-21T01:26:36;12.30;99.90
17887;DHT22;9069;52.044;7.472;2023-11-21T01:29:03;12.30;99.90
17887;DHT22;9069;52.044;7.472;2023-11-21T01:31:30;12.30;99.90
17887;DHT22;9069;52.044;7.472;2023-11-21T01:33:57;12.30;99.90
17887;DHT22;9069;52.044;7.472;2023-11-21T01:36:30;12.40;99.90
17887;DHT22;9069;52.044;7.472;2023-11-21T01:38:59;12.30;99.90
17887;DHT22;9069;52.044;7.472;2023-11-21T01:41:28;12.30;99.90
17887;DHT22;9069;52.044;7.472;2023-11-21T01:43:55;12.30;99.90
17887;DHT22;9069;52.044;7.472;2023-11-21T01:46:23;12.30;99.90
17887;DHT22;9069;52.044;7.472;2023-11-21T01:48:51;12.30;99.90
17887;DHT22;9069;52.044;7.472;2023-11-21T01:51:18;12.30;99.90
17887;DHT22;9069;52.044;7.472;2023-11-21T01:53:45;12.30;99.90
17887;DHT22;9069;52.044;7.472;2023-11-21T01:56:14;12.30;99.90
17887;DHT22;9069;52.044;7.472;2023-11-21T01:58:42;12.30;99.90
17887;DHT22;9069;52.044;7.472;2023-11-21T02:01:09;12.30;99.90
17887;DHT22;9069;52.044;7.472;2023-11-21T02:03:36;12.30;99.90
17887;DHT22;9069;52.044;7.472;2023-11-21T02:06:05;12.30;99.90
17887;DHT22;9069;52.044;7.472;2023-11-21T02:08:32;12.30;99.90
17887;DHT22;9069;52.044;7.472;2023-11-21T02:10:59;12.40;99.90
17887;DHT22;9069;52.044;7.472;2023-11-21T02:13:31;12.40;99.90
17887;DHT22;9069;52.044;7.472;2023-11-21T02:15:58;12.40;99.90
17887;DHT22;9069;52.044;7.472;2023-11-21T02:18:25;12.40;99.90
17887;DHT22;9069;52.044;7.472;2023-11-21T02:20:52;12.40;99.90
17887;DHT22;9069;52.044;7.472;2023-11-21T02:23:19;12.40;99.90
17887;DHT22;9069;52.044;7.472;2023-11-21T02:25:46;12.40;99.90
17887;DHT22;9069;52.044;7.472;2023-11-21T02:28:15;12.40;99.90
17887;DHT22;9069;52.044;7.472;2023-11-21T02:30:52;12.50;99.90
17887;DHT22;9069;52.044;7.472;2023-11-21T02:33:23;12.50;99.90
17887;DHT22;9069;52.044;7.472;2023-11-21T02:35:50;12.50;99.90
17887;DHT22;9069;52.044;7.472;2023-11-21T02:38:21;12.50;99.90
17887;DHT22;9069;52.044;7.472;2023-11-21T02:40:48;12.50;99.90
17887;DHT22;9069;52.044;7.472;2023-11-21T02:43:16;12.50;99.90
17887;DHT22;9069;52.044;7.472;2023-11-21T02:45:43;12.50;99.90
17887;DHT22;9069;52.044;7.472;2023-11-21T02:48:10;12.50;99.90
17887;DHT22;9069;52.044;7.472;2023-11-21T02:50:36;12.50;99.90
17887;DHT22;9069;52.044;7.472;2023-11-21T02:53:04;12.60;99.90
17887;DHT22;9069;52.044;7.472;2023-11-21T02:55:34;12.60;99.90
17887;DHT22;9069;52.044;7.472;2023-11-21T02:58:02;12.60;99.90
17887;DHT22;9069;52.044;7.472;2023-11-21T03:00:30;12.60;99.90
17887;DHT22;9069;52.044;7.472;2023-11-21T03:02:57;12.60;99.90
17887;DHT22;9069;52.044;7.472;2023-11-21T03:05:25;12.60;99.90
17887;DHT22;9069;52.044;7.472;2023-11-21T03:07:53;12.60;99.90
17887;DHT22;9069;52.044;7.472;2023-11-21T03:10:19;12.60;99.90
17887;DHT22;9069;52.044;7.472;2023-11-21T03:12:46;12.60;99.90
17887;DHT22;9069;52.044;7.472;2023-11-21T03:15:13;12.60;99.90
17887;DHT22;9069;52.044;7.472;2023-11-21T03:17:40;12.60;99.90
17887;DHT22;9069;52.044;7.472;2023-11-21T03:20:08;12.60;99.90
17887;DHT22;9069;52.044;7.472;2023-11-21T03:22:38;12.60;99.90
17887;DHT22;9069;52.044;7.472;2023-11-21T03:25:07;12.60;99.90
17887;DHT22;9069;52.044;7.472;2023-11-21T03:27:37;12.60;99.90
17887;DHT22;9069;52.044;7.472;2023-11-21T03:30:08;12.60;99.90
17887;DHT22;9069;52.044;7.472;2023-11-21T03:32:36;12.60;99.90
17887;DHT22;9069;52.044;7.472;2023-11-21T03:35:03;12.60;99.90
17887;DHT22;9069;52.044;7.472;2023-11-21T03:37:30;12.60;99.90
17887;DHT22;9069;52.044;7.472;2023-11-21T03:39:57;12.60;99.90
17887;DHT22;9069;52.044;7.472;2023-11-21T03:42:24;12.60;99.90
17887;DHT22;9069;52.044;7.472;2023-11-21T03:44:54;12.60;99.90
17887;DHT22;9069;52.044;7.472;2023-11-21T03:47:21;12.60;99.90
17887;DHT22;9069;52.044;7.472;2023-11-21T03:49:48;12.60;99.90
17887;DHT22;9069;52.044;7.472;2023-11-21T03:52:16;12.60;99.90
17887;DHT22;9069;52.044;7.472;2023-11-21T03:54:44;12.60;99.90
17887;DHT22;9069;52.044;7.472;2023-11-21T03:57:12;12.60;99.90
17887;DHT22;9069;52.044;7.472;2023-11-21T03:59:43;12.60;99.90
17887;DHT22;9069;52.044;7.472;2023-11-21T04:02:10;12.60;99.90
17887;DHT22;9069;52.044;7.472;2023-11-21T04:04:37;12.60;99.90
17887;DHT22;9069;52.044;7.472;2023-11-21T04:07:04;12.60;99.90
17887;DHT22;9069;52.044;7.472;2023-11-21T04:09:32;12.60;99.90
17887;DHT22;9069;52.044;7.472;2023-11-21T04:11:59;12.60;99.90
17887;DHT22;9069;52.044;7.472;2023-11-21T04:14:27;12.60;99.90
17887;DHT22;9069;52.044;7.472;2023-11-21T04:16:54;12.60;99.90
17887;DHT22;9069;52.044;7.472;2023-11-21T04:19:21;12.60;99.90
17887;DHT22;9069;52.044;7.472;2023-11-21T04:21:48;12.60;99.90
17887;DHT22;9069;52.044;7.472;2023-11-21T04:24:15;12.60;99.90
17887;DHT22;9069;52.044;7.472;2023-11-21T04:26:43;12.60;99.90
17887;DHT22;9069;52.044;7.472;2023-11-21T04:29:10;12.60;99.90
17887;DHT22;9069;52.044;7.472;2023-11-21T04:31:37;12.60;99.90
17887;DHT22;9069;52.044;7.472;2023-11-21T04:34:04;12.60;99.90
17887;DHT22;9069;52.044;7.472;2023-11-21T04:36:31;12.60;99.90
17887;DHT22;9069;52.044;7.472;2023-11-21T04:38:58;12.60;99.90
17887;DHT22;9069;52.044;7.472;2023-11-21T04:41:25;12.60;99.90
17887;DHT22;9069;52.044;7.472;2023-11-21T04:43:52;12.60;99.90
17887;DHT22;9069;52.044;7.472;2023-11-21T04:46:18;12.60;99.90
17887;DHT22;9069;52.044;7.472;2023-11-21T04:48:46;12.60;99.90
17887;DHT22;9069;52.044;7.472;2023-11-21T04:51:13;12.60;99.90
17887;DHT22;9069;52.044;7.472;2023-11-21T04:53:40;12.60;99.90
17887;DHT22;9069;52.044;7.472;2023-11-21T04:56:07;12.60;99.90
17887;DHT22;9069;52.044;7.472;2023-11-21T04:59:00;12.60;99.90
17887;DHT22;9069;52.044;7.472;2023-11-21T05:01:28;12.60;99.90
17887;DHT22;9069;52.044;7.472;2023-11-21T05:03:55;12.60;99.90
17887;DHT22;9069;52.044;7.472;2023-11-21T05:06:23;12.60;99.90
17887;DHT22;9069;52.044;7.472;2023-11-21T05:08:50;12.60;99.90
17887;DHT22;9069;52.044;7.472;2023-11-21T05:11:27;12.60;99.90
17887;DHT22;9069;52.044;7.472;2023-11-21T05:13:54;12.60;99.90
17887;DHT22;9069;52.044;7.472;2023-11-21T05:16:25;12.60;99.90
17887;DHT22;9069;52.044;7.472;2023-11-21T05:18:52;12.60;99.90
17887;DHT22;9069;52.044;7.472;2023-11-21T05:21:18;12.60;99.90
17887;DHT22;9069;52.044;7.472;2023-11-21T05:23:47;12.60;99.90
17887;DHT22;9069;52.044;7.472;2023-11-21T05:26:14;12.60;99.90
17887;DHT22;9069;52.044;7.472;2023-11-21T05:28:40;12.60;99.90
17887;DHT22;9069;52.044;7.472;2023-11-21T05:31:07;12.60;99.90
17887;DHT22;9069;52.044;7.472;2023-11-21T05:33:42;12.60;99.90
17887;DHT22;9069;52.044;7.472;2023-11-21T05:36:09;12.60;99.90
17887;DHT22;9069;52.044;7.472;2023-11-21T05:38:36;12.60;99.90
17887;DHT22;9069;52.044;7.472;2023-11-21T05:41:03;12.60;99.90
17887;DHT22;9069;52.044;7.472;2023-11-21T05:43:31;12.60;99.90
17887;DHT22;9069;52.044;7.472;2023-11-21T05:45:59;12.60;99.90
17887;DHT22;9069;52.044;7.472;2023-11-21T05:48:26;12.60;99.90
17887;DHT22;9069;52.044;7.472;2023-11-21T05:50:53;12.60;99.90
17887;DHT22;9069;52.044;7.472;2023-11-21T05:53:20;12.60;99.90
17887;DHT22;9069;52.044;7.472;2023-11-21T05:55:47;12.60;99.90
17887;DHT22;9069;52.044;7.472;2023-11-21T05:58:14;12.60;99.90
17887;DHT22;9069;52.044;7.472;2023-11-21T06:00:42;12.60;99.90
17887;DHT22;9069;52.044;7.472;2023-11-21T06:03:08;12.60;99.90
17887;DHT22;9069;52.044;7.472;2023-11-21T06:05:36;12.60;99.90
17887;DHT22;9069;52.044;7.472;2023-11-21T06:08:04;12.60;99.90
17887;DHT22;9069;52.044;7.472;2023-11-21T06:10:31;12.60;99.90
17887;DHT22;9069;52.044;7.472;2023-11-21T06:12:58;12.60;99.90
17887;DHT22;9069;52.044;7.472;2023-11-21T06:15:29;12.60;99.90
17887;DHT22;9069;52.044;7.472;2023-11-21T06:17:56;12.60;99.90
17887;DHT22;9069;52.044;7.472;2023-11-21T06:20:24;12.60;99.90
17887;DHT22;9069;52.044;7.472;2023-11-21T06:22:51;12.60;99.90
17887;DHT22;9069;52.044;7.472;2023-11-21T06:25:18;12.60;99.90
17887;DHT22;9069;52.044;7.472;2023-11-21T06:27:47;12.60;99.90
17887;DHT22;9069;52.044;7.472;2023-11-21T06:30:15;12.60;99.90
17887;DHT22;9069;52.044;7.472;2023-11-21T06:32:42;12.60;99.90
17887;DHT22;9069;52.044;7.472;2023-11-21T06:35:14;12.60;99.90
17887;DHT22;9069;52.044;7.472;2023-11-21T06:37:43;12.60;99.90
17887;DHT22;9069;52.044;7.472;2023-11-21T06:40:15;12.60;99.90
17887;DHT22;9069;52.044;7.472;2023-11-21T06:42:42;12.60;99.90
17887;DHT22;9069;52.044;7.472;2023-11-21T06:45:11;12.60;99.90
17887;DHT22;9069;52.044;7.472;2023-11-21T06:47:38;12.60;99.90
17887;DHT22;9069;52.044;7.472;2023-11-21T06:50:07;12.50;99.90
17887;DHT22;9069;52.044;7.472;2023-11-21T06:52:34;12.50;99.90
17887;DHT22;9069;52.044;7.472;2023-11-21T06:55:01;12.50;99.90
17887;DHT22;9069;52.044;7.472;2023-11-21T06:57:28;12.50;99.90
17887;DHT22;9069;52.044;7.472;2023-11-21T06:59:54;12.60;99.90
17887;DHT22;9069;52.044;7.472;2023-11-21T07:02:24;12.60;99.90
17887;DHT22;9069;52.044;7.472;2023-11-21T07:04:51;12.50;99.90
17887;DHT22;9069;52.044;7.472;2023-11-21T07:07:18;12.50;99.90
17887;DHT22;9069;52.044;7.472;2023-11-21T07:09:45;12.60;99.90
17887;DHT22;9069;52.044;7.472;2023-11-21T07:12:12;12.60;99.90
17887;DHT22;9069;52.044;7.472;2023-11-21T07:14:40;12.60;99.90
17887;DHT22;9069;52.044;7.472;2023-11-21T07:17:10;12.60;99.90
17887;DHT22;9069;52.044;7.472;2023-11-21T07:19:37;12.60;99.90
17887;DHT22;9069;52.044;7.472;2023-11-21T07:22:03;12.60;99.90
17887;DHT22;9069;52.044;7.472;2023-11-21T07:24:32;12.60;99.90
17887;DHT22;9069;52.044;7.472;2023-11-21T07:26:59;12.60;99.90
17887;DHT22;9069;52.044;7.472;2023-11-21T07:29:28;12.60;99.90
17887;DHT22;9069;52.044;7.472;2023-11-21T07:31:56;12.60;99.90
17887;DHT22;9069;52.044;7.472;2023-11-21T07:34:23;12.60;99.90
17887;DHT22;9069;52.044;7.472;2023-11-21T07:36:50;12.60;99.90
17887;DHT22;9069;52.044;7.472;2023-11-21T07:39:17;12.70;99.90
17887;DHT22;9069;52.044;7.472;2023-11-21T07:41:44;12.60;99.90
17887;DHT22;9069;52.044;7.472;2023-11-21T07:44:16;12.60;99.90
17887;DHT22;9069;52.044;7.472;2023-11-21T07:46:43;12.60;99.90
17887;DHT22;9069;52.044;7.472;2023-11-21T07:49:11;12.60;99.90
17887;DHT22;9069;52.044;7.472;2023-11-21T07:51:38;12.60;99.90
17887;DHT22;9069;52.044;7.472;2023-11-21T07:54:05;12.60;99.90
17887;DHT22;9069;52.044;7.472;2023-11-21T07:56:32;12.70;99.90
17887;DHT22;9069;52.044;7.472;2023-11-21T07:58:59;12.70;99.90
17887;DHT22;9069;52.044;7.472;2023-11-21T08:01:25;12.70;99.90
17887;DHT22;9069;52.044;7.472;2023-11-21T08:03:54;12.70;99.90
17887;DHT22;9069;52.044;7.472;2023-11-21T08:06:29;12.70;99.90
17887;DHT22;9069;52.044;7.472;2023-11-21T08:08:56;12.70;99.90
17887;DHT22;9069;52.044;7.472;2023-11-21T08:11:23;12.70;99.90
17887;DHT22;9069;52.044;7.472;2023-11-21T08:13:50;12.70;99.90
17887;DHT22;9069;52.044;7.472;2023-11-21T08:16:16;12.70;99.90
17887;DHT22;9069;52.044;7.472;2023-11-21T08:18:43;12.70;99.90
17887;DHT22;9069;52.044;7.472;2023-11-21T08:21:12;12.70;99.90
17887;DHT22;9069;52.044;7.472;2023-11-21T08:23:39;12.70;99.90
17887;DHT22;9069;52.044;7.472;2023-11-21T08:26:06;12.70;99.90
17887;DHT22;9069;52.044;7.472;2023-11-21T08:28:34;12.70;99.90
17887;DHT22;9069;52.044;7.472;2023-11-21T08:31:05;12.70;99.90
17887;DHT22;9069;52.044;7.472;2023-11-21T08:33:31;12.70;99.90
17887;DHT22;9069;52.044;7.472;2023-11-21T08:35:59;12.80;99.90
17887;DHT22;9069;52.044;7.472;2023-11-21T08:38:33;12.70;99.90
17887;DHT22;9069;52.044;7.472;2023-11-21T08:41:00;12.80;99.90
17887;DHT22;9069;52.044;7.472;2023-11-21T08:43:31;12.80;99.90
17887;DHT22;9069;52.044;7.472;2023-11-21T08:45:57;12.80;99.90
17887;DHT22;9069;52.044;7.472;2023-11-21T08:48:24;12.80;99.90
17887;DHT22;9069;52.044;7.472;2023-11-21T08:50:51;12.80;99.90
17887;DHT22;9069;52.044;7.472;2023-11-21T08:53:18;12.80;99.90
17887;DHT22;9069;52.044;7.472;2023-11-21T08:55:45;12.80;99.90
17887;DHT22;9069;52.044;7.472;2023-11-21T08:58:12;12.80;99.90
17887;DHT22;9069;52.044;7.472;2023-11-21T09:00:40;12.70;99.90
17887;DHT22;9069;52.044;7.472;2023-11-21T09:03:07;12.80;99.90
17887;DHT22;9069;52.044;7.472;2023-11-21T09:05:38;12.80;99.90
17887;DHT22;9069;52.044;7.472;2023-11-21T09:08:06;12.80;99.90
17887;DHT22;9069;52.044;7.472;2023-11-21T09:10:34;12.80;99.90
17887;DHT22;9069;52.044;7.472;2023-11-21T09:13:03;12.80;99.90
17887;DHT22;9069;52.044;7.472;2023-11-21T09:15:30;12.80;99.90
17887;DHT22;9069;52.044;7.472;2023-11-21T09:17:57;12.80;99.90
17887;DHT22;9069;52.044;7.472;2023-11-21T09:20:23;12.80;99.90
17887;DHT22;9069;52.044;7.472;2023-11-21T09:22:50;12.80;99.90
17887;DHT22;9069;52.044;7.472;2023-11-21T09:25:17;12.80;99.90
17887;DHT22;9069;52.044;7.472;2023-11-21T09:27:45;12.80;99.90
17887;DHT22;9069;52.044;7.472;2023-11-21T09:30:13;12.80;99.90
17887;DHT22;9069;52.044;7.472;2023-11-21T09:32:41;12.80;99.90
17887;DHT22;9069;52.044;7.472;2023-11-21T09:35:11;12.80;99.90
17887;DHT22;9069;52.044;7.472;2023-11-21T09:37:40;12.80;99.90
17887;DHT22;9069;52.044;7.472;2023-11-21T09:40:10;12.90;99.90
17887;DHT22;9069;52.044;7.472;2023-11-21T09:42:46;12.90;99.90
17887;DHT22;9069;52.044;7.472;2023-11-21T09:45:25;12.90;99.90
17887;DHT22;9069;52.044;7.472;2023-11-21T09:47:54;12.90;99.90
17887;DHT22;9069;52.044;7.472;2023-11-21T09:50:23;12.90;99.90
17887;DHT22;9069;52.044;7.472;2023-11-21T09:53:18;12.90;99.90
17887;DHT22;9069;52.044;7.472;2023-11-21T09:55:53;12.90;99.90
17887;DHT22;9069;52.044;7.472;2023-11-21T09:58:21;12.90;99.90
17887;DHT22;9069;52.044;7.472;2023-11-21T10:00:55;12.90;99.90
17887;DHT22;9069;52.044;7.472;2023-11-21T10:03:24;12.90;99.90
17887;DHT22;9069;52.044;7.472;2023-11-21T10:05:53;12.90;99.90
17887;DHT22;9069;52.044;7.472;2023-11-21T10:08:24;12.90;99.90
17887;DHT22;9069;52.044;7.472;2023-11-21T10:11:12;13.00;99.90
17887;DHT22;9069;52.044;7.472;2023-11-21T10:13:41;12.90;99.90
17887;DHT22;9069;52.044;7.472;2023-11-21T10:16:10;12.90;99.90
17887;DHT22;9069;52.044;7.472;2023-11-21T10:18:39;12.90;99.90
17887;DHT22;9069;52.044;7.472;2023-11-21T10:21:08;12.90;99.90
17887;DHT22;9069;52.044;7.472;2023-11-21T10:23:35;12.90;99.90
17887;DHT22;9069;52.044;7.472;2023-11-21T10:26:04;12.90;99.90
17887;DHT22;9069;52.044;7.472;2023-11-21T10:28:58;12.90;99.90
17887;DHT22;9069;52.044;7.472;2023-11-21T10:31:27;12.90;99.90
17887;DHT22;9069;52.044;7.472;2023-11-21T10:34:10;12.90;99.90
17887;DHT22;9069;52.044;7.472;2023-11-21T10:36:37;12.90;99.90
17887;DHT22;9069;52.044;7.472;2023-11-21T10:39:04;12.90;99.90
17887;DHT22;9069;52.044;7.472;2023-11-21T10:41:32;12.90;99.90
17887;DHT22;9069;52.044;7.472;2023-11-21T10:43:59;12.80;99.90
17887;DHT22;9069;52.044;7.472;2023-11-21T10:46:27;12.80;99.90
17887;DHT22;9069;52.044;7.472;2023-11-21T10:48:54;12.80;99.90
17887;DHT22;9069;52.044;7.472;2023-11-21T10:51:22;12.80;99.90
17887;DHT22;9069;52.044;7.472;2023-11-21T10:53:53;12.80;99.90
17887;DHT22;9069;52.044;7.472;2023-11-21T10:56:23;12.70;99.90
17887;DHT22;9069;52.044;7.472;2023-11-21T10:58:50;12.70;99.90
17887;DHT22;9069;52.044;7.472;2023-11-21T11:01:19;12.70;99.90
17887;DHT22;9069;52.044;7.472;2023-11-21T11:03:50;12.70;99.90
17887;DHT22;9069;52.044;7.472;2023-11-21T11:06:21;12.70;99.90
17887;DHT22;9069;52.044;7.472;2023-11-21T11:08:50;12.70;99.90
17887;DHT22;9069;52.044;7.472;2023-11-21T11:11:17;12.70;99.90
17887;DHT22;9069;52.044;7.472;2023-11-21T11:13:46;12.70;99.90
17887;DHT22;9069;52.044;7.472;2023-11-21T11:16:13;12.60;99.90
17887;DHT22;9069;52.044;7.472;2023-11-21T11:18:44;12.60;99.90
17887;DHT22;9069;52.044;7.472;2023-11-21T11:33:06;12.50;99.90
17887;DHT22;9069;52.044;7.472;2023-11-21T11:38:22;12.50;99.90
17887;DHT22;9069;52.044;7.472;2023-11-21T11:40:53;12.50;99.90
17887;DHT22;9069;52.044;7.472;2023-11-21T11:43:27;12.40;99.90
17887;DHT22;9069;52.044;7.472;2023-11-21T11:45:57;12.40;99.90
17887;DHT22;9069;52.044;7.472;2023-11-21T11:48:29;12.40;99.90
17887;DHT22;9069;52.044;7.472;2023-11-21T11:51:25;12.40;99.90
17887;DHT22;9069;52.044;7.472;2023-11-21T11:53:53;12.40;99.90
17887;DHT22;9069;52.044;7.472;2023-11-21T11:56:34;12.40;99.90
17887;DHT22;9069;52.044;7.472;2023-11-21T11:59:03;12.30;99.90
17887;DHT22;9069;52.044;7.472;2023-11-21T12:01:32;12.30;99.90
17887;DHT22;9069;52.044;7.472;2023-11-21T12:06:47;12.30;99.90
17887;DHT22;9069;52.044;7.472;2023-11-21T12:09:23;12.30;99.90
17887;DHT22;9069;52.044;7.472;2023-11-21T12:11:51;12.20;99.90
17887;DHT22;9069;52.044;7.472;2023-11-21T12:14:18;12.30;99.90
17887;DHT22;9069;52.044;7.472;2023-11-21T12:16:45;12.20;99.90
17887;DHT22;9069;52.044;7.472;2023-11-21T12:19:12;12.20;99.90
17887;DHT22;9069;52.044;7.472;2023-11-21T12:21:39;12.20;99.90
17887;DHT22;9069;52.044;7.472;2023-11-21T12:24:10;12.20;99.90
17887;DHT22;9069;52.044;7.472;2023-11-21T12:26:41;12.20;99.90
17887;DHT22;9069;52.044;7.472;2023-11-21T12:29:08;12.20;99.90
17887;DHT22;9069;52.044;7.472;2023-11-21T12:31:38;12.20;99.90
17887;DHT22;9069;52.044;7.472;2023-11-21T12:34:05;12.20;99.90
17887;DHT22;9069;52.044;7.472;2023-11-21T12:36:34;12.20;99.90
17887;DHT22;9069;52.044;7.472;2023-11-21T12:39:02;12.20;99.90
17887;DHT22;9069;52.044;7.472;2023-11-21T12:41:30;12.20;99.90
17887;DHT22;9069;52.044;7.472;2023-11-21T12:43:57;12.20;99.90
17887;DHT22;9069;52.044;7.472;2023-11-21T12:46:25;12.20;99.90
17887;DHT22;9069;52.044;7.472;2023-11-21T12:48:56;12.20;99.90
17887;DHT22;9069;52.044;7.472;2023-11-21T12:51:24;12.20;99.90
17887;DHT22;9069;52.044;7.472;2023-11-21T12:53:51;12.20;99.90
17887;DHT22;9069;52.044;7.472;2023-11-21T12:56:21;12.10;99.90
17887;DHT22;9069;52.044;7.472;2023-11-21T12:58:50;12.10;99.90
17887;DHT22;9069;52.044;7.472;2023-11-21T13:01:20;12.10;99.90
17887;DHT22;9069;52.044;7.472;2023-11-21T13:03:50;12.10;99.90
17887;DHT22;9069;52.044;7.472;2023-11-21T13:06:18;12.00;99.90
17887;DHT22;9069;52.044;7.472;2023-11-21T13:08:46;12.00;99.90
17887;DHT22;9069;52.044;7.472;2023-11-21T13:11:13;12.00;99.90
17887;DHT22;9069;52.044;7.472;2023-11-21T13:13:42;12.00;99.90
17887;DHT22;9069;52.044;7.472;2023-11-21T13:16:12;12.00;99.90
17887;DHT22;9069;52.044;7.472;2023-11-21T13:18:39;12.00;99.90
17887;DHT22;9069;52.044;7.472;2023-11-21T13:21:08;12.00;99.90
17887;DHT22;9069;52.044;7.472;2023-11-21T13:23:41;11.90;99.90
17887;DHT22;9069;52.044;7.472;2023-11-21T13:26:09;11.90;99.90
17887;DHT22;9069;52.044;7.472;2023-11-21T13:28:36;11.90;99.90
17887;DHT22;9069;52.044;7.472;2023-11-21T13:31:05;11.90;99.90
17887;DHT22;9069;52.044;7.472;2023-11-21T13:33:50;11.80;99.90
17887;DHT22;9069;52.044;7.472;2023-11-21T13:36:23;11.80;99.90
17887;DHT22;9069;52.044;7.472;2023-11-21T13:38:51;11.80;99.90
17887;DHT22;9069;52.044;7.472;2023-11-21T13:41:21;11.80;99.90
17887;DHT22;9069;52.044;7.472;2023-11-21T13:43:55;11.70;99.90
17887;DHT22;9069;52.044;7.472;2023-11-21T13:46:30;11.70;99.90
17887;DHT22;9069;52.044;7.472;2023-11-21T13:49:03;11.70;99.90
17887;DHT22;9069;52.044;7.472;2023-11-21T13:51:32;11.60;99.90
17887;DHT22;9069;52.044;7.472;2023-11-21T13:54:07;11.60;99.90
17887;DHT22;9069;52.044;7.472;2023-11-21T13:56:37;11.60;99.90
17887;DHT22;9069;52.044;7.472;2023-11-21T13:59:05;11.50;99.90
17887;DHT22;9069;52.044;7.472;2023-11-21T14:01:50;11.50;99.90
17887;DHT22;9069;52.044;7.472;2023-11-21T14:04:23;11.40;99.90
17887;DHT22;9069;52.044;7.472;2023-11-21T14:06:52;11.40;99.90
17887;DHT22;9069;52.044;7.472;2023-11-21T14:09:23;11.40;99.90
17887;DHT22;9069;52.044;7.472;2023-11-21T14:11:53;11.30;99.90
17887;DHT22;9069;52.044;7.472;2023-11-21T14:14:22;11.30;99.90
17887;DHT22;9069;52.044;7.472;2023-11-21T14:16:49;11.20;99.90
17887;DHT22;9069;52.044;7.472;2023-11-21T14:19:16;11.20;99.90
17887;DHT22;9069;52.044;7.472;2023-11-21T14:21:44;11.20;99.90
17887;DHT22;9069;52.044;7.472;2023-11-21T14:24:12;11.20;99.90
17887;DHT22;9069;52.044;7.472;2023-11-21T14:26:42;11.10;99.90
17887;DHT22;9069;52.044;7.472;2023-11-21T14:29:09;11.10;99.90
17887;DHT22;9069;52.044;7.472;2023-11-21T14:31:40;11.10;99.90
17887;DHT22;9069;52.044;7.472;2023-11-21T14:34:08;11.00;99.90
17887;DHT22;9069;52.044;7.472;2023-11-21T14:36:35;11.00;99.90
17887;DHT22;9069;52.044;7.472;2023-11-21T14:39:06;11.00;99.90
17887;DHT22;9069;52.044;7.472;2023-11-21T14:41:35;11.00;99.90
17887;DHT22;9069;52.044;7.472;2023-11-21T14:44:03;11.00;99.90
17887;DHT22;9069;52.044;7.472;2023-11-21T14:46:31;10.90;99.90
17887;DHT22;9069;52.044;7.472;2023-11-21T14:48:58;10.90;99.90
17887;DHT22;9069;52.044;7.472;2023-11-21T14:51:53;10.90;99.90
17887;DHT22;9069;52.044;7.472;2023-11-21T14:54:31;10.90;99.90
17887;DHT22;9069;52.044;7.472;2023-11-21T14:57:09;10.90;99.90
17887;DHT22;9069;52.044;7.472;2023-11-21T14:59:47;10.90;99.90
17887;DHT22;9069;52.044;7.472;2023-11-21T15:02:18;10.80;99.90
17887;DHT22;9069;52.044;7.472;2023-11-21T15:04:49;10.80;99.90
17887;DHT22;9069;52.044;7.472;2023-11-21T15:07:19;10.80;99.90
17887;DHT22;9069;52.044;7.472;2023-11-21T15:09:46;10.80;99.90
17887;DHT22;9069;52.044;7.472;2023-11-21T15:12:13;10.80;99.90
17887;DHT22;9069;52.044;7.472;2023-11-21T15:14:44;10.70;99.90
17887;DHT22;9069;52.044;7.472;2023-11-21T15:17:12;10.70;99.90
17887;DHT22;9069;52.044;7.472;2023-11-21T15:19:46;10.70;99.90
17887;DHT22;9069;52.044;7.472;2023-11-21T15:22:13;10.70;99.90
17887;DHT22;9069;52.044;7.472;2023-11-21T15:24:43;10.60;99.90
17887;DHT22;9069;52.044;7.472;2023-11-21T15:27:13;10.60;99.90
17887;DHT22;9069;52.044;7.472;2023-11-21T15:29:40;10.60;99.90
17887;DHT22;9069;52.044;7.472;2023-11-21T15:32:08;10.60;99.90
17887;DHT22;9069;52.044;7.472;2023-11-21T15:34:36;10.50;99.90
17887;DHT22;9069;52.044;7.472;2023-11-21T15:37:05;10.50;99.90
17887;DHT22;9069;52.044;7.472;2023-11-21T15:39:34;10.50;99.90
17887;DHT22;9069;52.044;7.472;2023-11-21T15:42:01;10.50;99.90
17887;DHT22;9069;52.044;7.472;2023-11-21T15:44:30;10.50;99.90
17887;DHT22;9069;52.044;7.472;2023-11-21T15:46:59;10.50;99.90
17887;DHT22;9069;52.044;7.472;2023-11-21T15:49:27;10.40;99.90
17887;DHT22;9069;52.044;7.472;2023-11-21T15:51:56;10.40;99.90
17887;DHT22;9069;52.044;7.472;2023-11-21T15:54:27;10.40;99.90
17887;DHT22;9069;52.044;7.472;2023-11-21T15:56:54;10.40;99.90
17887;DHT22;9069;52.044;7.472;2023-11-21T15:59:27;10.40;99.90
17887;DHT22;9069;52.044;7.472;2023-11-21T16:01:58;10.30;99.90
17887;DHT22;9069;52.044;7.472;2023-11-21T16:04:25;10.40;99.90
17887;DHT22;9069;52.044;7.472;2023-11-21T16:06:53;10.30;99.90
17887;DHT22;9069;52.044;7.472;2023-11-21T16:09:20;10.30;99.90
17887;DHT22;9069;52.044;7.472;2023-11-21T16:11:50;10.30;99.90